createdAt,value
2023-03-15T00:01:39.164Z,4.30
2023-03-15T00:04:07.710Z,3.90
2023-03-15T00:06:35.934Z,4.20
2023-03-15T00:09:04.256Z,3.70
2023-03-15T00:11:37.799Z,3.90
2023-03-15T00:14:06.942Z,4.10
2023-03-15T00:16:35.071Z,3.40
2023-03-15T00:19:03.188Z,3.60
2023-03-15T00:21:31.712Z,4.00
2023-03-15T00:24:00.257Z,3.90
2023-03-15T00:26:30.055Z,3.40
2023-03-15T00:28:58.083Z,2.80
2023-03-15T00:31:33.044Z,4.10
2023-03-15T00:34:01.577Z,3.70
2023-03-15T00:36:29.995Z,3.30
2023-03-15T00:38:59.650Z,3.80
2023-03-15T00:41:28.159Z,3.50
2023-03-15T00:43:58.761Z,4.10
2023-03-15T00:46:29.815Z,2.80
2023-03-15T00:48:58.680Z,3.50
2023-03-15T00:51:26.780Z,3.60
2023-03-15T00:53:55.348Z,3.80
2023-03-15T00:56:26.452Z,3.20
2023-03-15T00:58:55.737Z,4.00
2023-03-15T01:01:26.346Z,4.20
2023-03-15T01:03:54.966Z,4.00
2023-03-15T01:06:25.350Z,4.20
2023-03-15T01:11:26.399Z,4.20
2023-03-15T01:13:55.469Z,4.10
2023-03-15T01:16:24.051Z,4.80
2023-03-15T01:18:52.310Z,4.40
2023-03-15T01:21:21.953Z,3.70
2023-03-15T01:23:50.698Z,4.40
2023-03-15T01:26:22.589Z,4.00
2023-03-15T01:28:50.814Z,4.20
2023-03-15T01:31:22.912Z,4.00
2023-03-15T01:33:51.590Z,3.90
2023-03-15T01:36:19.949Z,4.00
2023-03-15T01:38:49.779Z,4.80
2023-03-15T01:41:20.971Z,4.70
2023-03-15T01:43:49.172Z,5.40
2023-03-15T01:46:34.478Z,4.30
2023-03-15T01:49:19.965Z,4.80
2023-03-15T01:52:05.370Z,4.40
2023-03-15T01:54:43.773Z,4.40
2023-03-15T01:57:18.788Z,5.00
2023-03-15T01:59:56.865Z,5.10
2023-03-15T02:02:25.175Z,5.00
2023-03-15T02:05:07.222Z,5.00
2023-03-15T02:07:36.305Z,5.40
2023-03-15T02:10:14.957Z,5.80
2023-03-15T02:12:51.723Z,5.10
2023-03-15T02:15:20.516Z,5.00
2023-03-15T02:17:49.483Z,5.20
2023-03-15T02:20:41.302Z,6.20
2023-03-15T02:23:13.465Z,5.80
2023-03-15T02:25:50.995Z,5.20
2023-03-15T02:28:19.452Z,6.00
2023-03-15T02:30:47.476Z,5.40
2023-03-15T02:33:23.282Z,5.80
2023-03-15T02:35:54.371Z,6.10
2023-03-15T02:38:25.587Z,5.90
2023-03-15T02:40:53.867Z,5.80
2023-03-15T02:43:24.844Z,5.60
2023-03-15T02:45:55.123Z,5.70
2023-03-15T02:48:23.784Z,6.00
2023-03-15T02:50:52.974Z,6.10
2023-03-15T02:53:22.195Z,6.70
2023-03-15T02:55:51.844Z,6.30
2023-03-15T03:00:49.886Z,6.60
2023-03-15T03:03:21.467Z,5.80
2023-03-15T03:05:49.639Z,6.40
2023-03-15T03:08:18.373Z,5.80
2023-03-15T03:10:48.263Z,6.20
2023-03-15T03:13:17.245Z,7.20
2023-03-15T03:15:58.716Z,5.80
2023-03-15T03:18:31.018Z,6.40
2023-03-15T03:21:00.107Z,6.80
2023-03-15T03:23:28.691Z,6.60
2023-03-15T03:25:57.340Z,6.80
2023-03-15T03:28:26.517Z,7.00
2023-03-15T03:30:55.753Z,8.60
2023-03-15T03:33:23.889Z,7.50
2023-03-15T03:35:52.273Z,7.00
2023-03-15T03:38:20.906Z,7.00
2023-03-15T03:40:52.297Z,7.00
2023-03-15T03:43:20.583Z,6.60
2023-03-15T03:45:49.054Z,7.20
2023-03-15T03:48:18.228Z,7.10
2023-03-15T03:50:49.739Z,7.60
2023-03-15T03:53:19.499Z,7.10
2023-03-15T03:55:47.603Z,7.90
2023-03-15T03:58:26.225Z,8.50
2023-03-15T04:01:02.368Z,7.50
2023-03-15T04:03:31.271Z,7.80
2023-03-15T04:06:10.374Z,8.00
2023-03-15T04:08:42.554Z,8.70
2023-03-15T04:11:19.520Z,9.20
2023-03-15T04:13:56.348Z,9.80
2023-03-15T04:16:24.816Z,9.10
2023-03-15T04:19:04.368Z,9.10
2023-03-15T04:21:35.784Z,9.70
2023-03-15T04:24:28.287Z,10.10
2023-03-15T04:27:06.290Z,9.60
2023-03-15T04:29:44.908Z,11.70
2023-03-15T04:32:44.075Z,9.60
2023-03-15T04:35:40.180Z,9.90
2023-03-15T04:38:29.265Z,9.40
2023-03-15T04:41:28.147Z,10.30
2023-03-15T04:44:17.336Z,8.60
2023-03-15T04:46:58.453Z,8.60
2023-03-15T04:49:48.072Z,8.20
2023-03-15T04:52:43.954Z,8.10
2023-03-15T04:55:30.307Z,9.00
2023-03-15T04:58:17.781Z,8.00
2023-03-15T05:00:46.225Z,8.40
2023-03-15T05:03:36.960Z,8.60
2023-03-15T05:06:25.501Z,8.70
2023-03-15T05:09:28.393Z,10.00
2023-03-15T05:12:17.811Z,9.30
2023-03-15T05:15:18.425Z,9.00
2023-03-15T05:18:05.946Z,9.10
2023-03-15T05:21:01.630Z,7.80
2023-03-15T05:23:41.394Z,8.60
2023-03-15T05:26:48.456Z,8.20
2023-03-15T05:29:39.063Z,7.70
2023-03-15T05:32:44.942Z,8.20
2023-03-15T05:35:44.223Z,7.60
2023-03-15T05:38:32.055Z,6.80
2023-03-15T05:41:20.107Z,8.20
2023-03-15T05:43:59.261Z,14.50
2023-03-15T05:46:46.471Z,8.30
2023-03-15T05:49:17.610Z,8.80
2023-03-15T05:51:54.356Z,8.00
2023-03-15T05:54:51.389Z,8.30
2023-03-15T06:00:24.210Z,7.50
2023-03-15T06:02:55.821Z,8.20
2023-03-15T06:05:47.176Z,7.80
2023-03-15T06:08:18.731Z,7.50
2023-03-15T06:10:54.881Z,8.70
2023-03-15T06:13:24.126Z,11.50
2023-03-15T06:15:52.420Z,7.90
2023-03-15T06:18:20.781Z,9.70
2023-03-15T06:20:51.248Z,8.90
2023-03-15T06:23:26.473Z,8.00
2023-03-15T06:25:56.187Z,9.90
2023-03-15T06:28:24.348Z,8.00
2023-03-15T06:31:08.233Z,9.30
2023-03-15T06:33:41.645Z,8.90
2023-03-15T06:36:11.565Z,9.10
2023-03-15T06:38:41.993Z,8.90
2023-03-15T06:41:10.113Z,9.10
2023-03-15T06:43:41.951Z,8.60
2023-03-15T06:46:11.138Z,9.10
2023-03-15T06:48:39.579Z,8.70
2023-03-15T06:51:09.428Z,9.70
2023-03-15T06:53:38.441Z,9.30
2023-03-15T06:56:07.625Z,8.70
2023-03-15T06:58:36.410Z,9.40
2023-03-15T07:01:04.732Z,9.00
2023-03-15T07:03:33.978Z,8.40
2023-03-15T07:06:02.141Z,8.40
2023-03-15T07:08:30.852Z,8.90
2023-03-15T07:10:58.923Z,9.10
2023-03-15T07:13:26.967Z,8.30
2023-03-15T07:15:56.599Z,8.10
2023-03-15T07:18:27.815Z,8.10
2023-03-15T07:20:57.790Z,8.00
2023-03-15T07:23:27.122Z,7.70
2023-03-15T07:25:55.886Z,8.30
2023-03-15T07:28:30.830Z,8.00
2023-03-15T07:31:00.826Z,8.30
2023-03-15T07:33:30.704Z,8.60
2023-03-15T07:35:59.562Z,10.20
2023-03-15T07:38:30.953Z,8.00
2023-03-15T07:41:01.868Z,7.80
2023-03-15T07:43:30.527Z,7.90
2023-03-15T07:46:08.128Z,8.90
2023-03-15T07:48:37.228Z,7.70
2023-03-15T07:51:05.956Z,9.30
2023-03-15T07:53:35.516Z,9.40
2023-03-15T07:56:05.260Z,8.60
2023-03-15T07:58:33.435Z,10.20
2023-03-15T08:01:04.935Z,12.90
2023-03-15T08:03:33.442Z,10.40
2023-03-15T08:06:06.957Z,10.20
2023-03-15T08:08:37.107Z,10.50
2023-03-15T08:11:05.658Z,9.90
2023-03-15T08:13:35.911Z,9.90
2023-03-15T08:16:04.106Z,8.80
2023-03-15T08:18:46.845Z,8.30
2023-03-15T08:21:17.234Z,8.00
2023-03-15T08:23:45.559Z,8.50
2023-03-15T08:26:16.514Z,9.10
2023-03-15T08:28:44.828Z,8.60
2023-03-15T08:31:14.254Z,8.30
2023-03-15T08:33:42.398Z,8.10
2023-03-15T08:36:13.508Z,7.70
2023-03-15T08:38:41.976Z,7.70
2023-03-15T08:41:33.594Z,7.70
2023-03-15T08:44:05.702Z,7.60
2023-03-15T08:46:33.917Z,6.20
2023-03-15T08:49:05.084Z,6.50
2023-03-15T08:51:33.790Z,7.00
2023-03-15T08:54:04.131Z,7.30
2023-03-15T08:56:32.716Z,8.70
2023-03-15T08:59:01.041Z,7.20
2023-03-15T09:01:30.436Z,6.50
2023-03-15T09:03:59.672Z,6.70
2023-03-15T09:06:28.826Z,6.10
2023-03-15T09:08:56.978Z,7.00
2023-03-15T09:11:25.205Z,6.80
2023-03-15T09:13:53.241Z,6.30
2023-03-15T09:16:26.641Z,8.00
2023-03-15T09:18:56.733Z,16.10
2023-03-15T09:21:25.338Z,8.90
2023-03-15T09:23:54.633Z,8.80
2023-03-15T09:26:23.290Z,8.20
2023-03-15T09:28:51.446Z,9.40
2023-03-15T09:31:20.216Z,8.40
2023-03-15T09:33:49.778Z,8.90
2023-03-15T09:36:20.815Z,9.20
2023-03-15T09:38:52.517Z,8.70
2023-03-15T09:41:41.243Z,9.80
2023-03-15T09:47:05.073Z,9.10
2023-03-15T09:49:52.620Z,8.20
2023-03-15T09:53:05.225Z,8.20
2023-03-15T09:55:35.103Z,8.50
2023-03-15T09:58:05.098Z,8.50
2023-03-15T10:00:48.286Z,7.00
2023-03-15T10:03:29.443Z,8.00
2023-03-15T10:06:02.064Z,6.50
2023-03-15T10:08:30.591Z,7.20
2023-03-15T10:11:35.424Z,6.50
2023-03-15T10:14:15.576Z,8.90
2023-03-15T10:19:25.817Z,7.30
2023-03-15T10:22:26.352Z,8.20
2023-03-15T10:25:11.733Z,7.70
2023-03-15T10:27:49.738Z,7.90
2023-03-15T10:30:29.272Z,7.70
2023-03-15T10:33:21.158Z,6.70
2023-03-15T10:35:51.033Z,8.00
2023-03-15T10:38:22.750Z,7.50
2023-03-15T10:40:53.358Z,7.90
2023-03-15T10:43:32.681Z,8.30
2023-03-15T10:46:09.295Z,8.50
2023-03-15T10:48:52.138Z,9.50
2023-03-15T10:51:29.022Z,8.50
2023-03-15T10:54:06.328Z,8.40
2023-03-15T10:56:56.561Z,6.60
2023-03-15T10:59:26.223Z,8.30
2023-03-15T11:02:08.055Z,7.50
2023-03-15T11:04:38.912Z,8.30
2023-03-15T11:07:07.894Z,7.80
2023-03-15T11:09:41.762Z,7.30
2023-03-15T11:12:11.324Z,7.60
2023-03-15T11:14:48.169Z,6.50
2023-03-15T11:17:22.237Z,7.20
2023-03-15T11:19:59.543Z,6.90
2023-03-15T11:22:31.086Z,7.40
2023-03-15T11:25:00.208Z,7.50
2023-03-15T11:27:28.910Z,7.00
2023-03-15T11:29:59.931Z,6.10
2023-03-15T11:32:30.166Z,6.80
2023-03-15T11:35:32.523Z,7.40
2023-03-15T11:38:14.706Z,7.90
2023-03-15T11:40:45.663Z,7.10
2023-03-15T11:43:25.512Z,6.40
2023-03-15T11:46:02.453Z,8.00
2023-03-15T11:48:46.618Z,7.90
2023-03-15T11:51:15.083Z,8.20
2023-03-15T11:53:59.014Z,7.70
2023-03-15T11:56:29.484Z,7.30
2023-03-15T11:59:06.393Z,7.30
2023-03-15T12:01:36.399Z,8.70
2023-03-15T12:04:29.245Z,8.80
2023-03-15T12:07:03.590Z,6.60
2023-03-15T12:09:31.869Z,7.50
2023-03-15T12:12:07.241Z,8.20
2023-03-15T12:14:38.654Z,8.30
2023-03-15T12:17:27.087Z,7.60
2023-03-15T12:19:58.502Z,9.10
2023-03-15T12:22:27.529Z,8.30
2023-03-15T12:24:59.219Z,8.00
2023-03-15T12:27:28.073Z,6.90
2023-03-15T12:30:00.497Z,7.70
2023-03-15T12:32:30.437Z,6.10
2023-03-15T12:34:58.605Z,6.50
2023-03-15T12:37:47.541Z,7.30
2023-03-15T12:40:15.655Z,7.60
2023-03-15T12:42:44.084Z,6.40
2023-03-15T12:45:15.779Z,6.90
2023-03-15T12:47:47.367Z,7.30
2023-03-15T12:50:39.166Z,6.90
2023-03-15T12:53:42.318Z,5.80
2023-03-15T12:56:23.966Z,6.90
2023-03-15T12:58:54.660Z,5.80
2023-03-15T13:01:25.813Z,6.00
2023-03-15T13:03:56.195Z,6.20
2023-03-15T13:06:43.418Z,7.00
2023-03-15T13:10:09.010Z,6.30
2023-03-15T13:12:48.280Z,6.40
2023-03-15T13:15:25.583Z,6.80
2023-03-15T13:17:59.314Z,5.00
2023-03-15T13:20:37.135Z,6.00
2023-03-15T13:23:20.934Z,5.80
2023-03-15T13:26:08.332Z,5.90
2023-03-15T13:28:40.412Z,6.00
2023-03-15T13:31:16.863Z,6.70
2023-03-15T13:33:48.159Z,6.00
2023-03-15T13:36:20.844Z,5.40
2023-03-15T13:38:50.706Z,4.90
2023-03-15T13:41:29.355Z,6.20
2023-03-15T13:43:59.222Z,5.30
2023-03-15T13:46:33.987Z,5.20
2023-03-15T13:49:02.072Z,5.80
2023-03-15T13:51:31.934Z,5.80
2023-03-15T13:54:09.054Z,5.90
2023-03-15T13:56:49.396Z,5.00
2023-03-15T13:59:17.976Z,5.60
2023-03-15T14:01:46.453Z,5.80
2023-03-15T14:04:17.404Z,6.00
2023-03-15T14:06:48.542Z,7.60
2023-03-15T14:09:24.037Z,9.30
2023-03-15T14:12:04.466Z,9.70
2023-03-15T14:14:35.077Z,7.20
2023-03-15T14:17:27.504Z,6.10
2023-03-15T14:20:08.983Z,7.90
2023-03-15T14:22:38.667Z,6.20
2023-03-15T14:25:21.306Z,7.20
2023-03-15T14:27:49.379Z,6.90
2023-03-15T14:30:26.550Z,6.30
2023-03-15T14:33:00.237Z,6.70
2023-03-15T14:35:37.791Z,5.80
2023-03-15T14:38:21.915Z,6.50
2023-03-15T14:40:51.828Z,6.90
2023-03-15T14:43:19.923Z,8.20
2023-03-15T14:45:48.572Z,6.70
2023-03-15T14:48:29.871Z,6.60
2023-03-15T14:50:58.262Z,7.00
2023-03-15T14:53:26.920Z,6.60
2023-03-15T14:55:56.408Z,6.00
2023-03-15T14:58:24.945Z,5.90
2023-03-15T15:00:59.886Z,6.60
2023-03-15T15:03:35.816Z,6.80
2023-03-15T15:06:05.231Z,6.00
2023-03-15T15:08:34.072Z,5.90
2023-03-15T15:11:02.878Z,6.40
2023-03-15T15:13:32.793Z,6.80
2023-03-15T15:16:01.370Z,6.90
2023-03-15T15:18:31.481Z,6.70
2023-03-15T15:21:16.475Z,7.10
2023-03-15T15:23:57.342Z,6.60
2023-03-15T15:26:28.305Z,6.20
2023-03-15T15:28:57.961Z,6.60
2023-03-15T15:31:26.890Z,7.00
2023-03-15T15:34:03.845Z,6.80
2023-03-15T15:36:35.222Z,6.10
2023-03-15T15:39:07.246Z,7.30
2023-03-15T15:41:35.555Z,7.50
2023-03-15T15:44:18.430Z,6.00
2023-03-15T15:46:48.677Z,6.40
2023-03-15T15:49:18.334Z,6.60
2023-03-15T15:51:49.034Z,6.70
2023-03-15T15:54:19.612Z,6.20
2023-03-15T15:56:55.289Z,6.80
2023-03-15T15:59:27.372Z,7.70
2023-03-15T16:02:01.007Z,6.90
2023-03-15T16:04:30.297Z,7.20
2023-03-15T16:07:01.755Z,5.70
2023-03-15T16:09:31.900Z,6.30
2023-03-15T16:12:02.729Z,6.40
2023-03-15T16:14:31.186Z,6.60
2023-03-15T16:16:59.365Z,6.40
2023-03-15T16:19:27.382Z,6.10
2023-03-15T16:21:55.863Z,5.90
2023-03-15T16:24:27.103Z,5.80
2023-03-15T16:27:05.643Z,6.70
2023-03-15T16:29:53.379Z,6.70
2023-03-15T16:32:40.915Z,6.60
2023-03-15T16:35:17.759Z,6.60
2023-03-15T16:37:48.008Z,7.00
2023-03-15T16:40:26.722Z,6.40
2023-03-15T16:42:55.290Z,8.60
2023-03-15T16:45:23.632Z,7.30
2023-03-15T16:47:56.831Z,9.50
2023-03-15T16:50:25.147Z,8.20
2023-03-15T16:52:58.625Z,9.30
2023-03-15T16:55:28.754Z,10.10
2023-03-15T16:58:03.678Z,11.40
2023-03-15T17:00:32.494Z,12.30
2023-03-15T17:03:01.697Z,12.20
2023-03-15T17:05:34.365Z,14.60
2023-03-15T17:08:04.707Z,12.20
2023-03-15T17:10:36.491Z,14.00
2023-03-15T17:13:14.875Z,14.10
2023-03-15T17:15:45.136Z,15.80
2023-03-15T17:18:20.065Z,13.80
2023-03-15T17:20:54.489Z,14.40
2023-03-15T17:23:24.362Z,19.40
2023-03-15T17:25:52.446Z,16.30
2023-03-15T17:28:20.662Z,16.40
2023-03-15T17:30:51.594Z,15.20
2023-03-15T17:33:26.059Z,15.10
2023-03-15T17:35:57.257Z,16.50
2023-03-15T17:38:28.819Z,14.90
2023-03-15T17:40:58.073Z,15.70
2023-03-15T17:43:28.810Z,20.00
2023-03-15T17:45:57.705Z,17.80
2023-03-15T17:48:26.535Z,17.30
2023-03-15T17:50:55.673Z,18.50
2023-03-15T17:53:25.660Z,18.90
2023-03-15T17:55:53.764Z,18.20
2023-03-15T17:58:24.182Z,17.80
2023-03-15T18:00:54.815Z,18.40
2023-03-15T18:03:23.389Z,18.90
2023-03-15T18:05:51.604Z,18.90
2023-03-15T18:08:34.447Z,15.70
2023-03-15T18:11:02.851Z,15.80
2023-03-15T18:13:31.369Z,22.30
2023-03-15T18:16:00.260Z,17.80
2023-03-15T18:18:31.707Z,17.00
2023-03-15T18:20:59.788Z,16.80
2023-03-15T18:23:33.467Z,17.20
2023-03-15T18:26:02.277Z,14.60
2023-03-15T18:28:30.648Z,15.90
2023-03-15T18:30:58.949Z,14.90
2023-03-15T18:33:30.271Z,16.10
2023-03-15T18:35:58.580Z,17.70
2023-03-15T18:38:32.379Z,16.60
2023-03-15T18:41:00.829Z,19.20
2023-03-15T18:43:32.971Z,16.60
2023-03-15T18:46:01.222Z,18.10
2023-03-15T18:48:39.979Z,18.00
2023-03-15T18:51:12.341Z,17.70
2023-03-15T18:53:42.667Z,22.30
2023-03-15T18:56:21.980Z,50.00
2023-03-15T18:58:50.977Z,20.20
2023-03-15T19:01:24.788Z,33.40
2023-03-15T19:03:54.229Z,20.40
2023-03-15T19:06:29.210Z,33.70
2023-03-15T19:08:57.521Z,20.40
2023-03-15T19:11:26.991Z,38.80
2023-03-15T19:13:55.531Z,24.10
2023-03-15T19:16:24.858Z,20.00
2023-03-15T19:18:53.158Z,18.70
2023-03-15T19:21:27.789Z,17.30
2023-03-15T19:23:58.089Z,18.40
2023-03-15T19:26:26.590Z,18.50
2023-03-15T19:29:07.704Z,16.10
2023-03-15T19:31:54.221Z,18.80
2023-03-15T19:34:33.645Z,18.00
2023-03-15T19:37:02.091Z,16.10
2023-03-15T19:39:30.076Z,17.90
2023-03-15T19:41:58.253Z,20.80
2023-03-15T19:44:27.466Z,20.00
2023-03-15T19:46:56.807Z,17.00
2023-03-15T19:49:25.043Z,18.60
2023-03-15T19:51:53.076Z,18.90
2023-03-15T19:54:21.199Z,19.00
2023-03-15T19:56:54.041Z,17.50
2023-03-15T19:59:22.056Z,22.20
2023-03-15T20:01:53.731Z,19.50
2023-03-15T20:04:23.367Z,19.40
2023-03-15T20:06:53.064Z,19.30
2023-03-15T20:09:21.113Z,18.50
2023-03-15T20:11:49.888Z,19.80
2023-03-15T20:14:20.682Z,21.70
2023-03-15T20:16:49.288Z,20.70
2023-03-15T20:19:23.672Z,21.30
2023-03-15T20:21:52.512Z,19.90
2023-03-15T20:24:20.551Z,18.90
2023-03-15T20:29:22.559Z,19.10
2023-03-15T20:31:53.818Z,18.20
2023-03-15T20:34:22.333Z,20.40
2023-03-15T20:36:52.792Z,20.10
2023-03-15T20:39:24.102Z,21.30
2023-03-15T20:41:54.092Z,21.20
2023-03-15T20:44:25.288Z,21.40
2023-03-15T20:46:56.805Z,21.90
2023-03-15T20:49:31.521Z,20.00
2023-03-15T20:51:59.711Z,20.80
2023-03-15T20:54:28.058Z,21.40
2023-03-15T20:56:56.769Z,20.80
2023-03-15T20:59:24.935Z,21.60
2023-03-15T21:01:59.168Z,22.60
2023-03-15T21:04:28.479Z,22.30
2023-03-15T21:06:56.916Z,24.40
2023-03-15T21:09:25.020Z,24.40
2023-03-15T21:11:53.305Z,26.50
2023-03-15T21:14:21.537Z,26.00
2023-03-15T21:16:51.316Z,22.30
2023-03-15T21:19:19.930Z,25.20
2023-03-15T21:21:48.512Z,24.50
2023-03-15T21:24:16.700Z,26.50
2023-03-15T21:26:48.610Z,23.20
2023-03-15T21:29:17.160Z,22.50
2023-03-15T21:31:48.592Z,21.50
2023-03-15T21:34:16.796Z,23.60
2023-03-15T21:36:45.491Z,21.50
2023-03-15T21:39:27.231Z,22.30
2023-03-15T21:42:04.959Z,23.50
2023-03-15T21:44:37.508Z,22.90
2023-03-15T21:47:06.463Z,22.20
2023-03-15T21:49:35.698Z,22.30
2023-03-15T21:52:03.804Z,21.60
2023-03-15T21:54:36.516Z,21.30
2023-03-15T21:57:05.030Z,20.90
2023-03-15T21:59:33.324Z,22.10
2023-03-15T22:02:01.869Z,23.00
2023-03-15T22:04:30.328Z,22.80
2023-03-15T22:07:02.130Z,21.60
2023-03-15T22:09:30.500Z,21.40
2023-03-15T22:12:06.907Z,22.30
2023-03-15T22:14:37.743Z,22.30
2023-03-15T22:17:05.849Z,23.10
2023-03-15T22:19:38.254Z,24.00
2023-03-15T22:22:06.535Z,24.40
2023-03-15T22:24:34.687Z,22.10
2023-03-15T22:27:04.463Z,24.20
2023-03-15T22:29:33.505Z,23.70
2023-03-15T22:32:01.511Z,24.60
2023-03-15T22:34:34.335Z,26.00
2023-03-15T22:37:02.626Z,25.70
2023-03-15T22:39:31.446Z,24.10
2023-03-15T22:41:59.726Z,26.00
2023-03-15T22:44:30.395Z,24.30
2023-03-15T22:46:58.700Z,21.70
2023-03-15T22:49:26.994Z,23.20
2023-03-15T22:51:57.233Z,22.30
2023-03-15T22:54:25.332Z,21.90
2023-03-15T22:56:55.215Z,23.20
2023-03-15T22:59:29.028Z,21.80
2023-03-15T23:01:57.824Z,21.90
2023-03-15T23:04:25.939Z,21.90
2023-03-15T23:06:54.058Z,19.80
2023-03-15T23:09:26.991Z,22.20
2023-03-15T23:11:55.362Z,21.60
2023-03-15T23:14:23.375Z,20.10
2023-03-15T23:16:53.938Z,20.50
2023-03-15T23:19:22.472Z,17.60
2023-03-15T23:21:50.558Z,17.20
2023-03-15T23:24:19.844Z,18.80
2023-03-15T23:26:48.502Z,16.20
2023-03-15T23:29:19.730Z,18.00
2023-03-15T23:31:47.983Z,15.30
2023-03-15T23:34:16.350Z,16.40
2023-03-15T23:36:45.485Z,16.80
2023-03-15T23:39:13.933Z,15.80
2023-03-15T23:41:50.317Z,14.90
2023-03-15T23:44:18.714Z,16.20
2023-03-15T23:46:47.130Z,16.30
2023-03-15T23:49:15.481Z,17.10
2023-03-15T23:51:44.121Z,16.90
2023-03-15T23:54:12.185Z,16.20
2023-03-15T23:56:41.237Z,14.30
2023-03-15T23:59:11.076Z,16.80
